sensor_id;sensor_type;location;lat;lon;timestamp;temperature;humidity
20911;DHT22;10615;42.702;23.314;2023-09-19T00:00:30;16.80;88.20
20911;DHT22;10615;42.702;23.314;2023-09-19T00:01:30;16.80;88.30
20911;DHT22;10615;42.702;23.314;2023-09-19T00:02:32;16.80;88.40
20911;DHT22;10615;42.702;23.314;2023-09-19T00:03:33;16.80;88.50
20911;DHT22;10615;42.702;23.314;2023-09-19T00:04:37;16.80;88.60
20911;DHT22;10615;42.702;23.314;2023-09-19T00:05:40;16.80;88.80
20911;DHT22;10615;42.702;23.314;2023-09-19T00:06:44;16.80;88.80
20911;DHT22;10615;42.702;23.314;2023-09-19T00:07:45;16.80;88.90
20911;DHT22;10615;42.702;23.314;2023-09-19T00:08:46;16.80;89.00
20911;DHT22;10615;42.702;23.314;2023-09-19T00:09:48;16.70;89.10
20911;DHT22;10615;42.702;23.314;2023-09-19T00:10:49;16.70;89.10
20911;DHT22;10615;42.702;23.314;2023-09-19T00:11:50;16.70;89.20
20911;DHT22;10615;42.702;23.314;2023-09-19T00:12:54;16.70;89.40
20911;DHT22;10615;42.702;23.314;2023-09-19T00:13:59;16.70;89.60
20911;DHT22;10615;42.702;23.314;2023-09-19T00:14:59;16.70;89.80
20911;DHT22;10615;42.702;23.314;2023-09-19T00:16:01;16.70;89.90
20911;DHT22;10615;42.702;23.314;2023-09-19T00:17:02;16.70;90.00
20911;DHT22;10615;42.702;23.314;2023-09-19T00:18:08;16.70;90.00
20911;DHT22;10615;42.702;23.314;2023-09-19T00:19:09;16.70;90.00
20911;DHT22;10615;42.702;23.314;2023-09-19T00:20:11;16.70;90.00
20911;DHT22;10615;42.702;23.314;2023-09-19T00:21:13;16.70;90.10
20911;DHT22;10615;42.702;23.314;2023-09-19T00:22:15;16.70;90.10
20911;DHT22;10615;42.702;23.314;2023-09-19T00:23:16;16.70;90.20
20911;DHT22;10615;42.702;23.314;2023-09-19T00:24:17;16.70;90.20
20911;DHT22;10615;42.702;23.314;2023-09-19T00:25:20;16.70;90.20
20911;DHT22;10615;42.702;23.314;2023-09-19T00:26:21;16.70;90.30
20911;DHT22;10615;42.702;23.314;2023-09-19T00:27:21;16.70;90.30
20911;DHT22;10615;42.702;23.314;2023-09-19T00:28:23;16.70;90.40
20911;DHT22;10615;42.702;23.314;2023-09-19T00:29:23;16.70;90.40
20911;DHT22;10615;42.702;23.314;2023-09-19T00:30:25;16.70;90.50
20911;DHT22;10615;42.702;23.314;2023-09-19T00:31:26;16.70;90.50
20911;DHT22;10615;42.702;23.314;2023-09-19T00:32:27;16.70;90.50
20911;DHT22;10615;42.702;23.314;2023-09-19T00:33:32;16.70;90.60
20911;DHT22;10615;42.702;23.314;2023-09-19T00:34:33;16.70;90.60
20911;DHT22;10615;42.702;23.314;2023-09-19T00:35:34;16.70;90.70
20911;DHT22;10615;42.702;23.314;2023-09-19T00:36:37;16.70;90.70
20911;DHT22;10615;42.702;23.314;2023-09-19T00:37:39;16.70;90.80
20911;DHT22;10615;42.702;23.314;2023-09-19T00:38:40;16.60;90.80
20911;DHT22;10615;42.702;23.314;2023-09-19T00:39:41;16.70;90.90
20911;DHT22;10615;42.702;23.314;2023-09-19T00:40:45;16.70;91.00
20911;DHT22;10615;42.702;23.314;2023-09-19T00:41:46;16.70;91.00
20911;DHT22;10615;42.702;23.314;2023-09-19T00:42:48;16.70;91.00
20911;DHT22;10615;42.702;23.314;2023-09-19T00:43:49;16.70;91.00
20911;DHT22;10615;42.702;23.314;2023-09-19T00:44:51;16.60;91.30
20911;DHT22;10615;42.702;23.314;2023-09-19T00:45:53;16.60;91.20
20911;DHT22;10615;42.702;23.314;2023-09-19T00:46:54;16.60;91.30
20911;DHT22;10615;42.702;23.314;2023-09-19T00:47:55;16.60;91.50
20911;DHT22;10615;42.702;23.314;2023-09-19T00:48:57;16.60;91.50
20911;DHT22;10615;42.702;23.314;2023-09-19T00:49:58;16.50;91.60
20911;DHT22;10615;42.702;23.314;2023-09-19T00:51:02;16.60;91.70
20911;DHT22;10615;42.702;23.314;2023-09-19T00:52:05;16.50;91.80
20911;DHT22;10615;42.702;23.314;2023-09-19T00:53:06;16.50;91.90
20911;DHT22;10615;42.702;23.314;2023-09-19T00:54:08;16.50;91.90
20911;DHT22;10615;42.702;23.314;2023-09-19T00:55:11;16.50;92.10
20911;DHT22;10615;42.702;23.314;2023-09-19T00:56:18;16.50;92.20
20911;DHT22;10615;42.702;23.314;2023-09-19T00:57:19;16.50;92.30
20911;DHT22;10615;42.702;23.314;2023-09-19T00:58:20;16.50;92.40
20911;DHT22;10615;42.702;23.314;2023-09-19T00:59:21;16.50;92.80
20911;DHT22;10615;42.702;23.314;2023-09-19T01:00:23;16.50;92.50
20911;DHT22;10615;42.702;23.314;2023-09-19T01:01:24;16.50;92.40
20911;DHT22;10615;42.702;23.314;2023-09-19T01:02:26;16.50;92.40
20911;DHT22;10615;42.702;23.314;2023-09-19T01:03:30;16.50;92.60
20911;DHT22;10615;42.702;23.314;2023-09-19T01:04:31;16.50;92.70
20911;DHT22;10615;42.702;23.314;2023-09-19T01:05:33;16.50;92.80
20911;DHT22;10615;42.702;23.314;2023-09-19T01:06:35;16.50;93.00
20911;DHT22;10615;42.702;23.314;2023-09-19T01:07:37;16.50;93.00
20911;DHT22;10615;42.702;23.314;2023-09-19T01:08:40;16.50;93.20
20911;DHT22;10615;42.702;23.314;2023-09-19T01:09:41;16.40;93.20
20911;DHT22;10615;42.702;23.314;2023-09-19T01:10:52;16.40;93.30
20911;DHT22;10615;42.702;23.314;2023-09-19T01:12:01;16.40;93.30
20911;DHT22;10615;42.702;23.314;2023-09-19T01:16:53;16.40;93.60
20911;DHT22;10615;42.702;23.314;2023-09-19T01:20:36;16.40;94.00
20911;DHT22;10615;42.702;23.314;2023-09-19T01:21:46;16.40;94.10
20911;DHT22;10615;42.702;23.314;2023-09-19T01:23:21;16.40;94.20
20911;DHT22;10615;42.702;23.314;2023-09-19T01:28:54;16.30;94.50
20911;DHT22;10615;42.702;23.314;2023-09-19T01:30:20;16.30;94.60
20911;DHT22;10615;42.702;23.314;2023-09-19T01:31:28;16.30;94.70
20911;DHT22;10615;42.702;23.314;2023-09-19T01:32:32;16.30;94.80
20911;DHT22;10615;42.702;23.314;2023-09-19T01:33:55;16.30;95.00
20911;DHT22;10615;42.702;23.314;2023-09-19T01:35:04;16.30;95.10
20911;DHT22;10615;42.702;23.314;2023-09-19T01:36:05;16.30;95.20
20911;DHT22;10615;42.702;23.314;2023-09-19T01:37:06;16.30;95.20
20911;DHT22;10615;42.702;23.314;2023-09-19T01:38:08;16.30;95.30
20911;DHT22;10615;42.702;23.314;2023-09-19T01:39:12;16.30;95.30
20911;DHT22;10615;42.702;23.314;2023-09-19T01:40:16;16.30;95.50
20911;DHT22;10615;42.702;23.314;2023-09-19T01:41:26;16.30;95.60
20911;DHT22;10615;42.702;23.314;2023-09-19T01:43:12;16.20;95.70
20911;DHT22;10615;42.702;23.314;2023-09-19T01:44:25;16.20;95.90
20911;DHT22;10615;42.702;23.314;2023-09-19T01:46:39;16.20;96.20
20911;DHT22;10615;42.702;23.314;2023-09-19T01:47:54;16.20;96.30
20911;DHT22;10615;42.702;23.314;2023-09-19T01:50:56;16.20;96.60
20911;DHT22;10615;42.702;23.314;2023-09-19T01:52:19;16.20;96.70
20911;DHT22;10615;42.702;23.314;2023-09-19T01:53:27;16.20;96.80
20911;DHT22;10615;42.702;23.314;2023-09-19T01:54:34;16.20;96.90
20911;DHT22;10615;42.702;23.314;2023-09-19T01:55:43;16.10;97.00
20911;DHT22;10615;42.702;23.314;2023-09-19T01:56:57;16.10;97.20
20911;DHT22;10615;42.702;23.314;2023-09-19T01:58:48;16.10;97.40
20911;DHT22;10615;42.702;23.314;2023-09-19T01:59:36;16.10;97.60
20911;DHT22;10615;42.702;23.314;2023-09-19T02:00:41;16.10;97.60
20911;DHT22;10615;42.702;23.314;2023-09-19T02:01:44;16.10;97.70
20911;DHT22;10615;42.702;23.314;2023-09-19T02:02:47;16.10;97.70
20911;DHT22;10615;42.702;23.314;2023-09-19T02:03:48;16.10;97.90
20911;DHT22;10615;42.702;23.314;2023-09-19T02:04:50;16.10;98.00
20911;DHT22;10615;42.702;23.314;2023-09-19T02:05:51;16.10;98.00
20911;DHT22;10615;42.702;23.314;2023-09-19T02:06:54;16.10;98.20
20911;DHT22;10615;42.702;23.314;2023-09-19T02:07:56;16.10;98.30
20911;DHT22;10615;42.702;23.314;2023-09-19T02:08:57;16.10;98.30
20911;DHT22;10615;42.702;23.314;2023-09-19T02:10:00;16.10;98.50
20911;DHT22;10615;42.702;23.314;2023-09-19T02:11:01;16.00;98.60
20911;DHT22;10615;42.702;23.314;2023-09-19T02:12:02;16.00;98.70
20911;DHT22;10615;42.702;23.314;2023-09-19T02:13:04;16.00;98.80
20911;DHT22;10615;42.702;23.314;2023-09-19T02:14:05;16.00;98.90
20911;DHT22;10615;42.702;23.314;2023-09-19T02:15:09;16.00;99.00
20911;DHT22;10615;42.702;23.314;2023-09-19T02:16:10;16.00;99.20
20911;DHT22;10615;42.702;23.314;2023-09-19T02:17:11;16.00;99.20
20911;DHT22;10615;42.702;23.314;2023-09-19T02:18:13;16.00;99.30
20911;DHT22;10615;42.702;23.314;2023-09-19T02:19:14;16.00;99.40
20911;DHT22;10615;42.702;23.314;2023-09-19T02:20:15;16.00;99.50
20911;DHT22;10615;42.702;23.314;2023-09-19T02:21:17;16.10;99.60
20911;DHT22;10615;42.702;23.314;2023-09-19T02:22:18;16.00;99.60
20911;DHT22;10615;42.702;23.314;2023-09-19T02:23:19;16.10;99.50
20911;DHT22;10615;42.702;23.314;2023-09-19T02:24:20;16.10;99.40
20911;DHT22;10615;42.702;23.314;2023-09-19T02:25:20;16.00;99.40
20911;DHT22;10615;42.702;23.314;2023-09-19T02:26:21;16.00;99.50
20911;DHT22;10615;42.702;23.314;2023-09-19T02:27:24;16.10;99.60
20911;DHT22;10615;42.702;23.314;2023-09-19T02:28:24;16.00;99.60
20911;DHT22;10615;42.702;23.314;2023-09-19T02:29:30;16.00;99.80
20911;DHT22;10615;42.702;23.314;2023-09-19T02:30:32;16.00;99.90
20911;DHT22;10615;42.702;23.314;2023-09-19T02:31:32;16.00;99.80
20911;DHT22;10615;42.702;23.314;2023-09-19T02:32:34;16.00;99.80
20911;DHT22;10615;42.702;23.314;2023-09-19T02:33:38;16.00;99.90
20911;DHT22;10615;42.702;23.314;2023-09-19T02:34:39;16.00;99.90
20911;DHT22;10615;42.702;23.314;2023-09-19T02:35:40;15.90;99.90
20911;DHT22;10615;42.702;23.314;2023-09-19T02:36:41;16.00;99.90
20911;DHT22;10615;42.702;23.314;2023-09-19T02:37:42;16.00;99.90
20911;DHT22;10615;42.702;23.314;2023-09-19T02:38:43;16.00;99.90
20911;DHT22;10615;42.702;23.314;2023-09-19T02:39:44;15.90;99.90
20911;DHT22;10615;42.702;23.314;2023-09-19T02:40:44;15.90;99.90
20911;DHT22;10615;42.702;23.314;2023-09-19T02:41:45;15.90;99.90
20911;DHT22;10615;42.702;23.314;2023-09-19T02:42:52;15.90;99.90
20911;DHT22;10615;42.702;23.314;2023-09-19T02:43:53;15.90;99.90
20911;DHT22;10615;42.702;23.314;2023-09-19T02:44:54;15.90;99.90
20911;DHT22;10615;42.702;23.314;2023-09-19T02:45:55;15.90;99.90
20911;DHT22;10615;42.702;23.314;2023-09-19T02:46:57;15.80;99.90
20911;DHT22;10615;42.702;23.314;2023-09-19T02:47:58;16.00;99.90
20911;DHT22;10615;42.702;23.314;2023-09-19T02:48:59;15.90;99.90
20911;DHT22;10615;42.702;23.314;2023-09-19T02:49:59;15.90;99.90
20911;DHT22;10615;42.702;23.314;2023-09-19T02:51:00;15.90;99.90
20911;DHT22;10615;42.702;23.314;2023-09-19T02:52:01;15.90;99.90
20911;DHT22;10615;42.702;23.314;2023-09-19T02:53:03;15.90;99.90
20911;DHT22;10615;42.702;23.314;2023-09-19T02:54:05;15.80;99.90
20911;DHT22;10615;42.702;23.314;2023-09-19T02:55:06;15.90;99.90
20911;DHT22;10615;42.702;23.314;2023-09-19T02:56:09;15.90;99.90
20911;DHT22;10615;42.702;23.314;2023-09-19T02:57:12;15.90;99.90
20911;DHT22;10615;42.702;23.314;2023-09-19T02:58:14;15.80;99.90
20911;DHT22;10615;42.702;23.314;2023-09-19T02:59:15;15.90;99.90
20911;DHT22;10615;42.702;23.314;2023-09-19T03:00:17;15.90;99.90
20911;DHT22;10615;42.702;23.314;2023-09-19T03:01:21;15.80;99.90
20911;DHT22;10615;42.702;23.314;2023-09-19T03:02:22;15.80;99.90
20911;DHT22;10615;42.702;23.314;2023-09-19T03:03:24;15.80;99.90
20911;DHT22;10615;42.702;23.314;2023-09-19T03:04:25;15.80;99.90
20911;DHT22;10615;42.702;23.314;2023-09-19T03:05:28;15.80;99.90
20911;DHT22;10615;42.702;23.314;2023-09-19T03:06:31;15.80;99.90
20911;DHT22;10615;42.702;23.314;2023-09-19T03:07:31;15.80;99.90
20911;DHT22;10615;42.702;23.314;2023-09-19T03:08:32;15.70;99.90
20911;DHT22;10615;42.702;23.314;2023-09-19T03:09:36;15.70;99.90
20911;DHT22;10615;42.702;23.314;2023-09-19T03:10:36;15.70;99.90
20911;DHT22;10615;42.702;23.314;2023-09-19T03:11:39;15.70;99.90
20911;DHT22;10615;42.702;23.314;2023-09-19T03:12:40;15.70;99.90
20911;DHT22;10615;42.702;23.314;2023-09-19T03:13:42;15.70;99.90
20911;DHT22;10615;42.702;23.314;2023-09-19T03:14:43;15.60;99.90
20911;DHT22;10615;42.702;23.314;2023-09-19T03:15:44;15.60;99.90
20911;DHT22;10615;42.702;23.314;2023-09-19T03:16:47;15.60;99.90
20911;DHT22;10615;42.702;23.314;2023-09-19T03:17:48;15.60;99.90
20911;DHT22;10615;42.702;23.314;2023-09-19T03:18:49;15.60;99.90
20911;DHT22;10615;42.702;23.314;2023-09-19T03:19:50;15.60;99.90
20911;DHT22;10615;42.702;23.314;2023-09-19T03:20:54;15.60;99.90
20911;DHT22;10615;42.702;23.314;2023-09-19T03:21:55;15.60;99.90
20911;DHT22;10615;42.702;23.314;2023-09-19T03:22:58;15.60;99.90
20911;DHT22;10615;42.702;23.314;2023-09-19T03:23:58;15.60;99.90
20911;DHT22;10615;42.702;23.314;2023-09-19T03:24:59;15.60;99.90
20911;DHT22;10615;42.702;23.314;2023-09-19T03:26:01;15.60;99.90
20911;DHT22;10615;42.702;23.314;2023-09-19T03:27:01;15.60;99.90
20911;DHT22;10615;42.702;23.314;2023-09-19T03:28:04;15.60;99.90
20911;DHT22;10615;42.702;23.314;2023-09-19T03:29:07;15.60;99.90
20911;DHT22;10615;42.702;23.314;2023-09-19T03:30:10;15.60;99.90
20911;DHT22;10615;42.702;23.314;2023-09-19T03:31:13;15.60;99.90
20911;DHT22;10615;42.702;23.314;2023-09-19T03:32:14;15.60;99.90
20911;DHT22;10615;42.702;23.314;2023-09-19T03:33:15;15.60;99.90
20911;DHT22;10615;42.702;23.314;2023-09-19T03:34:16;15.60;99.90
20911;DHT22;10615;42.702;23.314;2023-09-19T03:35:18;15.60;99.90
20911;DHT22;10615;42.702;23.314;2023-09-19T03:36:18;15.60;99.90
20911;DHT22;10615;42.702;23.314;2023-09-19T03:37:19;15.60;99.90
20911;DHT22;10615;42.702;23.314;2023-09-19T03:38:20;15.60;99.90
20911;DHT22;10615;42.702;23.314;2023-09-19T03:39:22;15.60;99.90
20911;DHT22;10615;42.702;23.314;2023-09-19T03:40:23;15.60;99.90
20911;DHT22;10615;42.702;23.314;2023-09-19T03:41:24;15.60;99.90
20911;DHT22;10615;42.702;23.314;2023-09-19T03:42:24;15.60;99.90
20911;DHT22;10615;42.702;23.314;2023-09-19T03:43:27;15.60;99.90
20911;DHT22;10615;42.702;23.314;2023-09-19T03:44:27;15.60;99.90
20911;DHT22;10615;42.702;23.314;2023-09-19T03:45:28;15.60;99.90
20911;DHT22;10615;42.702;23.314;2023-09-19T03:46:29;15.60;99.90
20911;DHT22;10615;42.702;23.314;2023-09-19T03:47:30;15.60;99.90
20911;DHT22;10615;42.702;23.314;2023-09-19T03:48:32;15.60;99.90
20911;DHT22;10615;42.702;23.314;2023-09-19T03:49:33;15.60;99.90
20911;DHT22;10615;42.702;23.314;2023-09-19T03:50:34;15.70;99.90
20911;DHT22;10615;42.702;23.314;2023-09-19T03:51:35;15.70;99.90
20911;DHT22;10615;42.702;23.314;2023-09-19T03:52:35;15.70;99.90
20911;DHT22;10615;42.702;23.314;2023-09-19T03:53:36;15.70;99.90
20911;DHT22;10615;42.702;23.314;2023-09-19T03:54:37;15.70;99.90
20911;DHT22;10615;42.702;23.314;2023-09-19T03:55:38;15.70;99.90
20911;DHT22;10615;42.702;23.314;2023-09-19T03:56:41;15.70;99.90
20911;DHT22;10615;42.702;23.314;2023-09-19T03:57:48;15.70;99.90
20911;DHT22;10615;42.702;23.314;2023-09-19T03:58:49;15.70;99.90
20911;DHT22;10615;42.702;23.314;2023-09-19T03:59:50;15.70;99.90
20911;DHT22;10615;42.702;23.314;2023-09-19T04:00:56;15.70;99.90
20911;DHT22;10615;42.702;23.314;2023-09-19T04:01:58;15.70;99.90
20911;DHT22;10615;42.702;23.314;2023-09-19T04:02:59;15.70;99.90
20911;DHT22;10615;42.702;23.314;2023-09-19T04:04:02;15.70;99.90
20911;DHT22;10615;42.702;23.314;2023-09-19T04:05:08;15.70;99.90
20911;DHT22;10615;42.702;23.314;2023-09-19T04:06:10;15.70;99.90
20911;DHT22;10615;42.702;23.314;2023-09-19T04:07:10;15.70;99.90
20911;DHT22;10615;42.702;23.314;2023-09-19T04:08:11;15.70;99.90
20911;DHT22;10615;42.702;23.314;2023-09-19T04:09:12;15.70;99.90
20911;DHT22;10615;42.702;23.314;2023-09-19T04:10:13;15.70;99.90
20911;DHT22;10615;42.702;23.314;2023-09-19T04:11:15;15.70;99.90
20911;DHT22;10615;42.702;23.314;2023-09-19T04:12:15;15.70;99.90
20911;DHT22;10615;42.702;23.314;2023-09-19T04:13:19;15.70;99.90
20911;DHT22;10615;42.702;23.314;2023-09-19T04:14:20;15.70;99.90
20911;DHT22;10615;42.702;23.314;2023-09-19T04:15:21;15.70;99.90
20911;DHT22;10615;42.702;23.314;2023-09-19T04:16:25;15.70;99.90
20911;DHT22;10615;42.702;23.314;2023-09-19T04:17:26;15.70;99.90
20911;DHT22;10615;42.702;23.314;2023-09-19T04:18:27;15.80;99.90
20911;DHT22;10615;42.702;23.314;2023-09-19T04:19:28;15.70;99.90
20911;DHT22;10615;42.702;23.314;2023-09-19T04:20:29;15.80;99.90
20911;DHT22;10615;42.702;23.314;2023-09-19T04:21:29;15.80;99.90
20911;DHT22;10615;42.702;23.314;2023-09-19T04:22:30;15.90;99.90
20911;DHT22;10615;42.702;23.314;2023-09-19T04:23:32;15.90;99.90
20911;DHT22;10615;42.702;23.314;2023-09-19T04:24:32;16.00;99.90
20911;DHT22;10615;42.702;23.314;2023-09-19T04:25:34;16.10;99.90
20911;DHT22;10615;42.702;23.314;2023-09-19T04:26:35;16.20;99.90
20911;DHT22;10615;42.702;23.314;2023-09-19T04:27:35;16.30;99.90
20911;DHT22;10615;42.702;23.314;2023-09-19T04:28:36;16.40;99.90
20911;DHT22;10615;42.702;23.314;2023-09-19T04:29:38;16.50;99.90
20911;DHT22;10615;42.702;23.314;2023-09-19T04:30:40;16.60;99.90
20911;DHT22;10615;42.702;23.314;2023-09-19T04:31:43;16.60;99.90
20911;DHT22;10615;42.702;23.314;2023-09-19T04:32:45;16.70;99.90
20911;DHT22;10615;42.702;23.314;2023-09-19T04:33:51;16.80;99.90
20911;DHT22;10615;42.702;23.314;2023-09-19T04:34:51;16.80;99.70
20911;DHT22;10615;42.702;23.314;2023-09-19T04:35:54;16.90;99.40
20911;DHT22;10615;42.702;23.314;2023-09-19T04:36:55;17.00;99.00
20911;DHT22;10615;42.702;23.314;2023-09-19T04:37:58;17.00;98.80
20911;DHT22;10615;42.702;23.314;2023-09-19T04:38:59;17.10;98.60
20911;DHT22;10615;42.702;23.314;2023-09-19T04:40:00;17.20;98.40
20911;DHT22;10615;42.702;23.314;2023-09-19T04:41:01;17.30;98.10
20911;DHT22;10615;42.702;23.314;2023-09-19T04:42:02;17.40;97.70
20911;DHT22;10615;42.702;23.314;2023-09-19T04:43:03;17.50;97.20
20911;DHT22;10615;42.702;23.314;2023-09-19T04:44:05;17.50;96.90
20911;DHT22;10615;42.702;23.314;2023-09-19T04:45:06;17.50;96.50
20911;DHT22;10615;42.702;23.314;2023-09-19T04:46:07;17.50;96.30
20911;DHT22;10615;42.702;23.314;2023-09-19T04:47:09;17.50;96.00
20911;DHT22;10615;42.702;23.314;2023-09-19T04:48:09;17.50;95.80
20911;DHT22;10615;42.702;23.314;2023-09-19T04:49:11;17.50;95.70
20911;DHT22;10615;42.702;23.314;2023-09-19T04:50:12;17.50;95.70
20911;DHT22;10615;42.702;23.314;2023-09-19T04:51:14;17.50;95.50
20911;DHT22;10615;42.702;23.314;2023-09-19T04:52:15;17.40;95.40
20911;DHT22;10615;42.702;23.314;2023-09-19T04:53:17;17.40;95.40
20911;DHT22;10615;42.702;23.314;2023-09-19T04:54:18;17.30;95.20
20911;DHT22;10615;42.702;23.314;2023-09-19T04:55:19;17.30;95.40
20911;DHT22;10615;42.702;23.314;2023-09-19T04:56:19;17.20;95.50
20911;DHT22;10615;42.702;23.314;2023-09-19T04:57:21;17.20;95.60
20911;DHT22;10615;42.702;23.314;2023-09-19T04:58:22;17.20;95.60
20911;DHT22;10615;42.702;23.314;2023-09-19T04:59:23;17.20;95.50
20911;DHT22;10615;42.702;23.314;2023-09-19T05:00:24;17.30;95.50
20911;DHT22;10615;42.702;23.314;2023-09-19T05:01:26;17.30;95.40
20911;DHT22;10615;42.702;23.314;2023-09-19T05:02:29;17.30;95.40
20911;DHT22;10615;42.702;23.314;2023-09-19T05:03:31;17.30;95.30
20911;DHT22;10615;42.702;23.314;2023-09-19T05:04:32;17.40;95.20
20911;DHT22;10615;42.702;23.314;2023-09-19T05:05:32;17.40;95.00
20911;DHT22;10615;42.702;23.314;2023-09-19T05:06:34;17.40;95.00
20911;DHT22;10615;42.702;23.314;2023-09-19T05:07:37;17.40;95.00
20911;DHT22;10615;42.702;23.314;2023-09-19T05:08:37;17.50;94.90
20911;DHT22;10615;42.702;23.314;2023-09-19T05:09:39;17.50;95.10
20911;DHT22;10615;42.702;23.314;2023-09-19T05:10:39;17.50;94.50
20911;DHT22;10615;42.702;23.314;2023-09-19T05:11:40;17.50;94.50
20911;DHT22;10615;42.702;23.314;2023-09-19T05:12:41;17.60;94.50
20911;DHT22;10615;42.702;23.314;2023-09-19T05:13:42;17.70;94.40
20911;DHT22;10615;42.702;23.314;2023-09-19T05:14:43;17.80;94.20
20911;DHT22;10615;42.702;23.314;2023-09-19T05:15:44;17.90;94.10
20911;DHT22;10615;42.702;23.314;2023-09-19T05:16:45;18.00;93.80
20911;DHT22;10615;42.702;23.314;2023-09-19T05:17:50;18.10;93.70
20911;DHT22;10615;42.702;23.314;2023-09-19T05:18:51;18.20;93.30
20911;DHT22;10615;42.702;23.314;2023-09-19T05:19:52;18.20;92.90
20911;DHT22;10615;42.702;23.314;2023-09-19T05:20:53;18.30;92.70
20911;DHT22;10615;42.702;23.314;2023-09-19T05:21:55;18.30;92.50
20911;DHT22;10615;42.702;23.314;2023-09-19T05:23:02;18.40;92.30
20911;DHT22;10615;42.702;23.314;2023-09-19T05:24:03;18.40;92.00
20911;DHT22;10615;42.702;23.314;2023-09-19T05:25:05;18.50;91.70
20911;DHT22;10615;42.702;23.314;2023-09-19T05:26:07;18.50;91.50
20911;DHT22;10615;42.702;23.314;2023-09-19T05:27:08;18.60;91.30
20911;DHT22;10615;42.702;23.314;2023-09-19T05:28:10;18.70;91.20
20911;DHT22;10615;42.702;23.314;2023-09-19T05:29:15;18.70;90.90
20911;DHT22;10615;42.702;23.314;2023-09-19T05:30:16;18.80;90.80
20911;DHT22;10615;42.702;23.314;2023-09-19T05:31:16;18.90;90.70
20911;DHT22;10615;42.702;23.314;2023-09-19T05:32:17;19.00;90.60
20911;DHT22;10615;42.702;23.314;2023-09-19T05:33:20;19.10;90.50
20911;DHT22;10615;42.702;23.314;2023-09-19T05:34:20;19.30;90.40
20911;DHT22;10615;42.702;23.314;2023-09-19T05:35:22;19.40;89.80
20911;DHT22;10615;42.702;23.314;2023-09-19T05:36:22;19.50;88.80
20911;DHT22;10615;42.702;23.314;2023-09-19T05:37:23;19.50;88.20
20911;DHT22;10615;42.702;23.314;2023-09-19T05:38:26;19.60;87.60
20911;DHT22;10615;42.702;23.314;2023-09-19T05:39:27;19.70;87.20
20911;DHT22;10615;42.702;23.314;2023-09-19T05:40:28;19.80;86.90
20911;DHT22;10615;42.702;23.314;2023-09-19T05:41:29;19.80;86.00
20911;DHT22;10615;42.702;23.314;2023-09-19T05:42:29;19.90;85.30
20911;DHT22;10615;42.702;23.314;2023-09-19T05:43:30;19.90;84.90
20911;DHT22;10615;42.702;23.314;2023-09-19T05:44:31;19.90;84.40
20911;DHT22;10615;42.702;23.314;2023-09-19T05:45:34;19.90;84.00
20911;DHT22;10615;42.702;23.314;2023-09-19T05:46:34;19.80;83.40
20911;DHT22;10615;42.702;23.314;2023-09-19T05:47:35;19.80;83.30
20911;DHT22;10615;42.702;23.314;2023-09-19T05:48:36;19.80;83.10
20911;DHT22;10615;42.702;23.314;2023-09-19T05:49:36;19.80;83.00
20911;DHT22;10615;42.702;23.314;2023-09-19T05:50:38;19.70;82.80
20911;DHT22;10615;42.702;23.314;2023-09-19T05:51:39;19.70;82.80
20911;DHT22;10615;42.702;23.314;2023-09-19T05:52:40;19.70;82.70
20911;DHT22;10615;42.702;23.314;2023-09-19T05:53:44;19.70;82.80
20911;DHT22;10615;42.702;23.314;2023-09-19T05:54:47;19.70;82.90
20911;DHT22;10615;42.702;23.314;2023-09-19T05:55:48;19.80;82.80
20911;DHT22;10615;42.702;23.314;2023-09-19T05:56:50;19.70;82.40
20911;DHT22;10615;42.702;23.314;2023-09-19T05:57:53;19.80;82.60
20911;DHT22;10615;42.702;23.314;2023-09-19T05:58:54;19.80;82.60
20911;DHT22;10615;42.702;23.314;2023-09-19T05:59:55;19.90;82.80
20911;DHT22;10615;42.702;23.314;2023-09-19T06:00:55;20.00;82.20
20911;DHT22;10615;42.702;23.314;2023-09-19T06:01:57;20.00;82.10
20911;DHT22;10615;42.702;23.314;2023-09-19T06:03:00;20.10;82.00
20911;DHT22;10615;42.702;23.314;2023-09-19T06:04:00;20.20;82.60
20911;DHT22;10615;42.702;23.314;2023-09-19T06:05:01;20.30;81.40
20911;DHT22;10615;42.702;23.314;2023-09-19T06:06:02;20.40;81.20
20911;DHT22;10615;42.702;23.314;2023-09-19T06:07:03;20.60;80.90
20911;DHT22;10615;42.702;23.314;2023-09-19T06:08:04;20.80;80.30
20911;DHT22;10615;42.702;23.314;2023-09-19T06:09:09;20.90;79.70
20911;DHT22;10615;42.702;23.314;2023-09-19T06:10:10;21.00;79.20
20911;DHT22;10615;42.702;23.314;2023-09-19T06:11:11;21.20;78.60
20911;DHT22;10615;42.702;23.314;2023-09-19T06:12:11;21.40;77.70
20911;DHT22;10615;42.702;23.314;2023-09-19T06:13:13;21.50;77.00
20911;DHT22;10615;42.702;23.314;2023-09-19T06:14:14;21.60;76.20
20911;DHT22;10615;42.702;23.314;2023-09-19T06:15:15;21.70;75.60
20911;DHT22;10615;42.702;23.314;2023-09-19T06:16:19;21.80;75.20
20911;DHT22;10615;42.702;23.314;2023-09-19T06:17:20;21.90;74.60
20911;DHT22;10615;42.702;23.314;2023-09-19T06:18:23;21.90;74.00
20911;DHT22;10615;42.702;23.314;2023-09-19T06:19:26;22.00;73.50
20911;DHT22;10615;42.702;23.314;2023-09-19T06:20:27;22.10;73.20
20911;DHT22;10615;42.702;23.314;2023-09-19T06:21:28;22.10;72.70
20911;DHT22;10615;42.702;23.314;2023-09-19T06:22:29;22.10;72.30
20911;DHT22;10615;42.702;23.314;2023-09-19T06:23:29;22.20;72.10
20911;DHT22;10615;42.702;23.314;2023-09-19T06:24:30;22.20;71.80
20911;DHT22;10615;42.702;23.314;2023-09-19T06:25:31;22.20;71.70
20911;DHT22;10615;42.702;23.314;2023-09-19T06:26:32;22.20;72.60
20911;DHT22;10615;42.702;23.314;2023-09-19T06:27:32;22.30;71.70
20911;DHT22;10615;42.702;23.314;2023-09-19T06:28:33;22.40;71.40
20911;DHT22;10615;42.702;23.314;2023-09-19T06:29:34;22.50;71.20
20911;DHT22;10615;42.702;23.314;2023-09-19T06:30:34;22.60;70.60
20911;DHT22;10615;42.702;23.314;2023-09-19T06:31:35;22.60;70.00
20911;DHT22;10615;42.702;23.314;2023-09-19T06:32:36;22.60;69.80
20911;DHT22;10615;42.702;23.314;2023-09-19T06:33:37;22.60;69.70
20911;DHT22;10615;42.702;23.314;2023-09-19T06:34:41;22.70;69.70
20911;DHT22;10615;42.702;23.314;2023-09-19T06:35:43;22.70;69.40
20911;DHT22;10615;42.702;23.314;2023-09-19T06:36:47;22.70;69.30
20911;DHT22;10615;42.702;23.314;2023-09-19T06:37:48;22.70;68.80
20911;DHT22;10615;42.702;23.314;2023-09-19T06:38:48;22.70;68.90
20911;DHT22;10615;42.702;23.314;2023-09-19T06:39:51;22.60;68.60
20911;DHT22;10615;42.702;23.314;2023-09-19T06:40:53;22.60;68.80
20911;DHT22;10615;42.702;23.314;2023-09-19T06:41:54;22.70;68.90